Capitol Logistics 314


KRFD
Chicago/Rockford International Airport
Rockford, Illinois, US
KAFW
Fort Worth Alliance Airport
Fort Worth, Texas, US

Activity Log

Date Flight Route Aircraft Duration
05/25/2020 CPX314 MZV J87 COODY HITUG TRUUK2 B763 2h 02m
04/13/2020 CPX314 MZV J87 COODY HITUG TRUUK2 B763 2h 18m
02/14/2020 CPX314 MZV J87 COODY HITUG TRUUK2 B763 2h 02m

Route Details

Aircraft Information
Primary: Boeing 767-300BDSF
Backup: Not Available
Route Data
Distance: 676nm
Sched. Duration: 1h 50m
Avg. Duration: 2h 08m (+58m)
Times Flown: 3
Recm'd Route: MZV J87 COODY HITUG TRUUK2
Planned Altitude: 34,000ft
Origin Wx: KRFD 271754Z 24005KT 10SM SCT090 BKN130 04/M04 A3028 RMK AO2 SLP262 T00391039 10039 20006 57025
Dest. Wx: KAFW 271753Z 35016KT 5SM BR OVC007 03/02 A3014 RMK AO2 DZE25RAB33E48 SLP214 P0000 60002 T00330017 10033 20022 58014 $
Notes:

Financial History
Total Freight: 323,904lbs
Average Load: 107,968lbs/flt
Fuel Used: 66,258lbs
Avg. Fuel Used: 22,086lbs/flt
Fuel Expense: $49,031
Avg. Fuel Expense: $16,344
Avg. Fuel Cost: $0.74/lbs
Total Gross Income: $459,944
Pilot Pay: $537
Total Expenses: $49,830
Total Revenue: $359,951
Average Revenue: $153,314.56